Time;durP1;ratioP1;P1;durP2;ratioP2;P2;SDS_P1;SDS_P2;PMS_P1;PMS_P2;Temp;Humidity;BMP_temperature;BMP_pressure;BME280_temperature;BME280_humidity;BME280_pressure;Samples;Min_cycle;Max_cycle;Signal;HPM_P1;HPM_P2
2023/07/05 00:09:09;;;;;;;16.00;11.30;;;;;;;16.95;66.13;98560.67;434183;1256;107198;-41
2023/07/05 00:19:16;;;;;;;17.80;12.20;;;;;;;16.70;66.63;98567.13;433861;1256;99320;-42
2023/07/05 00:29:23;;;;;;;15.30;11.10;;;;;;;16.51;66.75;98567.40;434079;1256;108485;-41
2023/07/05 00:39:30;;;;;;;25.20;12.20;;;;;;;16.45;67.14;98566.52;433931;1262;99247;-41
2023/07/05 00:49:38;;;;;;;19.40;10.60;;;;;;;16.37;67.24;98559.48;433987;1257;112156;-43
2023/07/05 00:59:51;;;;;;;19.90;12.50;;;;;;;16.25;67.81;98556.28;434180;1262;107752;-44
2023/07/05 01:09:57;;;;;;;22.40;11.40;;;;;;;16.14;68.09;98555.92;433859;1262;99519;-42
2023/07/05 01:20:13;;;;;;;17.10;11.00;;;;;;;16.03;68.48;98549.72;433914;1256;108502;-41
2023/07/05 01:30:51;;;;;;;17.70;11.30;;;;;;;16.10;68.96;98539.80;434742;1258;99241;-40
2023/07/05 01:40:58;;;;;;;20.30;10.90;;;;;;;16.00;69.17;98540.45;434003;1261;111355;-42
2023/07/05 01:51:07;;;;;;;15.60;10.80;;;;;;;15.74;69.27;98530.45;434017;1260;107377;-42
2023/07/05 02:01:17;;;;;;;16.40;10.60;;;;;;;15.45;69.60;98530.29;433925;1261;99247;-42
2023/07/05 02:11:24;;;;;;;17.40;10.30;;;;;;;15.45;69.94;98524.48;433972;1259;108314;-43
2023/07/05 02:21:31;;;;;;;19.90;10.90;;;;;;;15.50;70.30;98530.45;433991;1261;99237;-44
2023/07/05 02:31:36;;;;;;;18.80;10.90;;;;;;;15.45;70.37;98533.59;434062;1261;111602;-46
2023/07/05 02:41:42;;;;;;;18.90;12.60;;;;;;;15.20;70.56;98521.02;433994;1259;108659;-41
2023/07/05 02:51:49;;;;;;;24.00;12.80;;;;;;;15.30;71.21;98515.96;434015;1261;99241;-42
2023/07/05 03:01:57;;;;;;;22.50;12.00;;;;;;;15.50;71.46;98514.78;433942;1260;107699;-41
2023/07/05 03:12:04;;;;;;;14.90;11.10;;;;;;;15.63;71.39;98526.04;434007;1259;99327;-41
2023/07/05 03:22:11;;;;;;;17.20;12.30;;;;;;;15.68;71.33;98518.73;434057;1258;111490;-43
2023/07/05 03:32:19;;;;;;;19.20;12.50;;;;;;;16.40;71.12;98518.79;433523;1261;419741;-42
2023/07/05 03:42:27;;;;;;;22.30;12.20;;;;;;;17.04;70.45;98515.16;434142;1258;99220;-42
2023/07/05 03:52:35;;;;;;;20.50;14.70;;;;;;;17.87;69.94;98505.57;433966;1260;108467;-41
2023/07/05 04:12:47;;;;;;;22.00;15.20;;;;;;;20.46;67.94;98495.05;433945;1261;111766;-42
2023/07/05 04:22:54;;;;;;;39.40;18.40;;;;;;;21.55;65.94;98496.42;433950;1258;108421;-43
2023/07/05 04:33:01;;;;;;;52.40;18.00;;;;;;;22.22;64.45;98498.92;434039;1257;99394;-42
2023/07/05 04:43:08;;;;;;;34.90;15.40;;;;;;;23.12;63.31;98493.49;433832;1259;107975;-43
2023/07/05 04:53:15;;;;;;;43.70;16.70;;;;;;;24.25;61.79;98495.83;434039;1261;99250;-42
2023/07/05 05:13:32;;;;;;;39.70;15.80;;;;;;;26.02;58.64;98493.04;433967;1261;107636;-41
2023/07/05 05:23:40;;;;;;;25.80;14.70;;;;;;;26.79;57.39;98499.40;434041;1258;98844;-41
2023/07/05 05:33:50;;;;;;;20.30;14.60;;;;;;;27.57;56.26;98495.50;434010;1258;108765;-41
2023/07/05 05:43:57;;;;;;;19.20;13.80;;;;;;;27.40;53.84;98492.59;433935;1262;99249;-42
2023/07/05 05:54:05;;;;;;;19.80;11.90;;;;;;;26.88;52.24;98489.15;434034;1259;112000;-43
2023/07/05 06:04:12;;;;;;;16.60;10.50;;;;;;;26.93;50.67;98486.48;434105;1261;108266;-41
2023/07/05 06:24:25;;;;;;;11.70;8.20;;;;;;;27.79;49.56;98467.27;434035;1271;109355;-44
2023/07/05 06:34:32;;;;;;;13.90;9.60;;;;;;;27.81;48.74;98457.00;434000;1271;98520;-43
2023/07/05 06:44:39;;;;;;;13.80;6.90;;;;;;;27.93;48.21;98451.25;434081;1261;111548;-43
2023/07/05 06:54:45;;;;;;;12.00;7.10;;;;;;;28.26;46.23;98453.42;433981;1261;108702;-43
2023/07/05 07:04:51;;;;;;;;;;;;;;;28.44;45.67;98455.52;434073;1262;99248;-42
2023/07/05 07:14:59;;;;;;;8.50;5.70;;;;;;;28.92;45.27;98450.05;433913;1275;108196;-42
2023/07/05 07:25:04;;;;;;;28.30;5.60;;;;;;;29.31;43.68;98441.17;434106;1261;99231;-43
2023/07/05 07:35:11;;;;;;;8.70;4.40;;;;;;;29.26;43.08;98431.88;433936;1262;112408;-45
2023/07/05 07:45:19;;;;;;;9.90;5.80;;;;;;;29.27;41.94;98430.74;433963;1261;106594;-42
2023/07/05 07:55:29;;;;;;;7.20;4.30;;;;;;;28.98;42.26;98436.90;433956;1259;99327;-42
2023/07/05 08:05:36;;;;;;;7.30;5.40;;;;;;;29.19;43.01;98422.73;434153;1259;109376;-42
2023/07/05 08:15:43;;;;;;;9.70;5.50;;;;;;;29.29;42.01;98424.19;434109;1266;99339;-43
2023/07/05 08:25:54;;;;;;;7.50;5.90;;;;;;;29.47;42.49;98423.06;434037;1263;112166;-42
2023/07/05 08:36:07;;;;;;;12.90;5.90;;;;;;;30.08;41.81;98422.04;433973;1264;108497;-43
2023/07/05 08:46:16;;;;;;;13.70;6.80;;;;;;;29.91;41.74;98424.91;434114;1263;97996;-44
2023/07/05 09:16:53;;;;;;;8.70;5.60;;;;;;;30.55;40.27;98424.06;434037;1271;111664;-41
2023/07/05 09:27:02;;;;;;;14.40;5.50;;;;;;;30.73;39.70;98409.84;433883;1262;107979;-42
2023/07/05 09:37:12;;;;;;;10.30;4.50;;;;;;;30.71;37.30;98403.48;435790;1261;98716;-43
2023/07/05 09:47:20;;;;;;;10.00;3.70;;;;;;;30.57;36.31;98403.49;433970;1261;105691;-43
2023/07/05 09:57:28;;;;;;;10.40;4.20;;;;;;;30.52;35.88;98397.05;433996;1262;99274;-42
2023/07/05 10:17:46;;;;;;;7.10;3.90;;;;;;;30.18;34.71;98395.09;433624;1271;108704;-42
2023/07/05 10:27:54;;;;;;;7.40;4.10;;;;;;;30.52;34.25;98397.96;433627;1258;98580;-42
2023/07/05 10:37:59;;;;;;;5.40;3.20;;;;;;;30.06;34.22;98384.54;434011;1271;109414;-43
2023/07/05 10:48:15;;;;;;;7.80;3.10;;;;;;;30.51;34.39;98382.13;433901;1261;99237;-42
2023/07/05 10:58:24;;;;;;;3.30;3.00;;;;;;;30.01;33.82;98376.24;433919;1260;110658;-45
2023/07/05 11:08:35;;;;;;;8.10;3.40;;;;;;;30.00;34.44;98368.90;433795;1258;108369;-41
2023/07/05 11:18:43;;;;;;;5.40;3.20;;;;;;;30.18;33.54;98362.06;433935;1257;99244;-45
2023/07/05 11:28:50;;;;;;;6.10;3.30;;;;;;;30.29;33.98;98348.83;433961;1260;107152;-42
2023/07/05 11:39:01;;;;;;;4.40;3.60;;;;;;;30.10;33.36;98340.82;433988;1258;99309;-40
2023/07/05 11:49:43;;;;;;;8.00;3.50;;;;;;;30.25;33.97;98320.85;433953;1261;112215;-41
2023/07/05 11:59:50;;;;;;;5.90;3.00;;;;;;;30.72;33.56;98305.17;434078;1257;108172;-41
2023/07/05 12:09:57;;;;;;;3.50;3.20;;;;;;;30.65;33.60;98293.45;433777;1261;99256;-42
2023/07/05 12:30:18;;;;;;;3.80;3.20;;;;;;;30.37;33.54;98247.95;433873;1258;99224;-41
2023/07/05 13:10:54;;;;;;;6.30;3.30;;;;;;;30.92;33.52;98200.60;433834;1260;107608;-42
2023/07/05 13:21:13;;;;;;;5.90;3.70;;;;;;;30.25;33.64;98207.50;433708;1260;98940;-42
2023/07/05 13:31:20;;;;;;;7.90;4.10;;;;;;;29.66;34.01;98204.45;433912;1261;112788;-42
2023/07/05 14:11:52;;;;;;;16.60;3.70;;;;;;;27.24;38.54;98257.61;433918;1261;99198;-41
2023/07/05 14:21:59;;;;;;;5.50;2.90;;;;;;;25.18;41.84;98246.10;433858;1257;111110;-42
2023/07/05 14:32:04;;;;;;;;;;;;;;;24.00;43.96;98228.65;433864;1260;108190;-42
2023/07/05 14:42:09;;;;;;;4.90;2.70;;;;;;;23.42;45.90;98223.61;433848;1261;99259;-41
2023/07/05 14:52:16;;;;;;;5.20;2.20;;;;;;;23.47;46.70;98247.21;433811;1258;107655;-42
2023/07/05 15:02:23;;;;;;;4.90;2.70;;;;;;;23.65;47.14;98246.88;433877;1260;99240;-42
2023/07/05 15:12:31;;;;;;;8.40;3.70;;;;;;;23.99;47.66;98255.47;433868;1260;112147;-43
2023/07/05 15:22:37;;;;;;;5.50;3.90;;;;;;;23.94;48.59;98275.03;433834;1257;107488;-42
2023/07/05 15:32:45;;;;;;;8.80;4.30;;;;;;;22.76;51.63;98275.18;433504;1257;409958;-42
2023/07/05 15:42:55;;;;;;;5.20;3.80;;;;;;;21.81;55.26;98270.08;433801;1260;107821;-43
2023/07/05 16:03:10;;;;;;;6.20;3.90;;;;;;;21.67;56.94;98261.48;433934;1261;112222;-44
2023/07/05 16:13:19;;;;;;;5.70;4.40;;;;;;;21.44;58.10;98247.08;433961;1257;107486;-43
2023/07/05 16:23:27;;;;;;;6.50;4.20;;;;;;;20.99;58.79;98226.07;433915;1257;98832;-43
2023/07/05 16:33:35;;;;;;;5.70;3.70;;;;;;;20.74;60.32;98217.59;433885;1260;107522;-43
2023/07/05 16:43:42;;;;;;;14.90;4.60;;;;;;;20.74;61.17;98227.96;433974;1261;98834;-44
2023/07/05 16:53:54;;;;;;;6.00;4.30;;;;;;;20.71;62.29;98226.08;433967;1260;112009;-44
2023/07/05 17:04:01;;;;;;;8.50;4.90;;;;;;;20.70;63.26;98234.66;433893;1261;107382;-42
2023/07/05 17:14:10;;;;;;;8.30;5.90;;;;;;;20.70;64.03;98249.39;433876;1257;99291;-44
2023/07/05 17:24:21;;;;;;;14.20;6.10;;;;;;;20.55;64.57;98271.70;433958;1258;107968;-42
2023/07/05 17:44:36;;;;;;;8.70;4.20;;;;;;;20.21;65.60;98270.02;433938;1260;111556;-43
2023/07/05 17:54:44;;;;;;;4.90;4.10;;;;;;;20.16;66.25;98317.05;433754;1275;108228;-44
2023/07/05 18:04:51;;;;;;;8.10;4.50;;;;;;;20.04;66.97;98339.99;433925;1257;99352;-43
2023/07/05 18:14:57;;;;;;;11.90;5.70;;;;;;;20.35;67.25;98387.22;433911;1257;107229;-44
2023/07/05 18:25:05;;;;;;;15.00;7.30;;;;;;;20.10;67.38;98378.45;434012;1261;99333;-45
2023/07/05 18:35:12;;;;;;;8.90;5.10;;;;;;;19.96;68.62;98393.52;433872;1257;113043;-44
2023/07/05 18:45:17;;;;;;;10.10;5.00;;;;;;;19.49;69.49;98408.91;433944;1261;108125;-44
2023/07/05 18:55:25;;;;;;;9.50;4.20;;;;;;;19.46;69.30;98418.85;433832;1261;99259;-42
2023/07/05 19:05:32;;;;;;;13.60;5.30;;;;;;;18.91;70.23;98399.33;433958;1257;109665;-42
2023/07/05 19:15:41;;;;;;;7.80;4.40;;;;;;;18.84;70.91;98396.20;433824;1280;99243;-43
2023/07/05 19:25:50;;;;;;;11.70;5.40;;;;;;;18.81;71.18;98390.80;433938;1260;112073;-43
2023/07/05 19:35:55;;;;;;;;;;;;;;;18.98;71.53;98393.92;433853;1260;109915;-43
2023/07/05 19:46:01;;;;;;;12.30;6.80;;;;;;;18.93;71.76;98381.52;433810;1261;99250;-45
2023/07/05 19:56:17;;;;;;;11.10;6.90;;;;;;;18.91;71.90;98373.55;433759;1260;108603;-43
2023/07/05 20:06:35;;;;;;;13.30;7.00;;;;;;;18.97;72.08;98375.51;433689;1260;99340;-43
2023/07/05 20:16:40;;;;;;;11.90;5.90;;;;;;;18.83;72.28;98366.05;433904;1259;112369;-43
2023/07/05 20:26:46;;;;;;;11.40;6.40;;;;;;;18.84;72.56;98371.23;433566;1261;108194;-42
2023/07/05 20:36:53;;;;;;;12.20;7.20;;;;;;;18.78;73.01;98371.77;433846;1261;98005;-43
2023/07/05 20:47:01;;;;;;;9.90;5.90;;;;;;;18.70;73.54;98374.17;433907;1261;107403;-43
2023/07/05 20:57:26;;;;;;;12.00;6.20;;;;;;;18.56;74.15;98376.36;434063;1260;99266;-44
2023/07/05 21:07:33;;;;;;;9.40;6.00;;;;;;;18.58;74.72;98385.38;433842;1257;110284;-43
2023/07/05 21:17:40;;;;;;;9.40;6.70;;;;;;;18.57;74.80;98384.27;433952;1259;107968;-41
2023/07/05 21:27:47;;;;;;;9.90;6.60;;;;;;;18.47;74.99;98401.04;433953;1261;99220;-43
2023/07/05 21:37:56;;;;;;;12.40;8.20;;;;;;;18.49;75.42;98410.23;433959;1261;108686;-42
2023/07/05 22:08:15;;;;;;;10.90;6.00;;;;;;;18.49;75.43;98425.63;433992;1257;108820;-41
2023/07/05 22:18:23;;;;;;;11.80;6.90;;;;;;;18.50;75.65;98433.80;434035;1259;99256;-41
2023/07/05 22:28:31;;;;;;;11.90;6.30;;;;;;;18.51;75.44;98446.48;433996;1258;107851;-42
2023/07/05 22:38:38;;;;;;;11.00;7.10;;;;;;;18.08;75.33;98456.21;434055;1260;98516;-42
2023/07/05 22:58:52;;;;;;;9.40;6.10;;;;;;;17.80;76.48;98460.17;433991;1261;108667;-42
2023/07/05 23:08:59;;;;;;;;;;;;;;;18.07;76.69;98449.71;433943;1259;99269;-42
2023/07/05 23:19:07;;;;;;;11.90;5.80;;;;;;;18.06;76.43;98454.16;434094;1261;109411;-41
2023/07/05 23:29:14;;;;;;;13.00;6.90;;;;;;;17.89;76.34;98452.34;434069;1259;99267;-43
2023/07/05 23:39:21;;;;;;;11.60;6.00;;;;;;;17.69;76.55;98456.88;433838;1261;111107;-41
2023/07/05 23:49:28;;;;;;;8.80;5.80;;;;;;;17.59;76.89;98465.61;433837;1262;110724;-42
